createdAt,value
2023-04-02T00:00:01.488Z,9.86
2023-04-02T00:15:02.119Z,9.59
2023-04-02T00:30:01.798Z,9.53
2023-04-02T00:45:01.430Z,9.52
2023-04-02T01:00:02.058Z,9.36
2023-04-02T01:15:01.677Z,9.11
2023-04-02T01:30:01.329Z,8.88
2023-04-02T01:45:01.979Z,8.65
2023-04-02T02:00:01.644Z,8.56
2023-04-02T02:15:01.325Z,8.4
2023-04-02T02:30:01.982Z,8.31
2023-04-02T02:45:01.663Z,8.38
2023-04-02T03:00:01.452Z,8.12
2023-04-02T03:15:02.112Z,8.1
2023-04-02T03:30:01.810Z,7.91
2023-04-02T03:45:01.466Z,7.72
2023-04-02T04:00:02.083Z,7.56
2023-04-02T04:15:01.732Z,7.07
2023-04-02T04:30:01.918Z,6.61
2023-04-02T04:45:01.628Z,6.8
2023-04-02T05:00:02.267Z,6.36
2023-04-02T05:15:01.892Z,6.09
2023-04-02T05:30:01.534Z,6.2
2023-04-02T05:45:02.200Z,6.73
2023-04-02T06:00:01.930Z,7.05
2023-04-02T06:15:01.605Z,7.45
2023-04-02T06:30:02.295Z,8.02
2023-04-02T06:45:01.953Z,8.15
2023-04-02T07:00:01.570Z,8.4
2023-04-02T07:15:02.178Z,8.4
2023-04-02T07:30:01.810Z,8.63
2023-04-02T07:45:02.852Z,9.05
2023-04-02T08:00:01.353Z,9.48
2023-04-02T08:15:01.989Z,9.82
2023-04-02T08:30:01.597Z,10.67
2023-04-02T08:45:08.081Z,12
2023-04-02T09:00:01.672Z,13.08
2023-04-02T09:15:01.315Z,14.75
2023-04-02T09:30:02.012Z,14.78
2023-04-02T09:45:01.657Z,15.26
2023-04-02T10:00:01.225Z,18.33
2023-04-02T10:15:01.867Z,18.56
2023-04-02T10:30:01.611Z,21.57
2023-04-02T10:45:01.278Z,23.41
2023-04-02T11:00:01.905Z,21.11
2023-04-02T11:15:01.574Z,20.23
2023-04-02T11:30:01.294Z,26.02
2023-04-02T11:45:01.952Z,27.12
2023-04-02T12:00:01.579Z,30.08
2023-04-02T12:15:01.209Z,32.41
2023-04-02T12:30:02.217Z,34.8
2023-04-02T12:45:01.874Z,27.67
2023-04-02T13:00:01.439Z,30.48
2023-04-02T13:15:02.094Z,30.08
2023-04-02T13:30:01.771Z,32.38
2023-04-02T13:45:01.449Z,29.71
2023-04-02T14:00:02.061Z,29.51
2023-04-02T14:15:01.709Z,29.79
2023-04-02T14:30:01.394Z,30.48
2023-04-02T14:45:02.021Z,26.63
2023-04-02T15:00:01.819Z,24.48
2023-04-02T15:15:01.552Z,26.35
2023-04-02T15:30:02.194Z,24.82
2023-04-02T15:45:01.816Z,21.4
2023-04-02T16:00:01.499Z,20
2023-04-02T16:15:02.160Z,20.42
2023-04-02T16:30:01.871Z,20.74
2023-04-02T16:45:01.572Z,19.59
2023-04-02T17:00:02.202Z,19.61
2023-04-02T17:15:01.921Z,19.13
2023-04-02T17:30:01.555Z,16.93
2023-04-02T17:45:02.175Z,15.32
2023-04-02T18:00:01.777Z,14.17
2023-04-02T18:15:01.423Z,13.3
2023-04-02T18:30:02.134Z,12.51
2023-04-02T18:45:01.781Z,12.02
2023-04-02T19:00:01.433Z,12.48
2023-04-02T19:15:02.150Z,12.66
2023-04-02T19:30:01.844Z,12.72
2023-04-02T19:45:01.543Z,12.73
2023-04-02T20:00:01.198Z,12.27
2023-04-02T20:15:01.900Z,11.65
2023-04-02T20:30:01.942Z,11.26
2023-04-02T20:45:01.749Z,10.88
2023-04-02T21:00:01.528Z,10.56
2023-04-02T21:15:03.076Z,10.33
2023-04-02T21:30:01.871Z,10.07
2023-04-02T21:45:01.551Z,9.9
2023-04-02T22:00:02.390Z,9.63
2023-04-02T22:15:02.128Z,9.4
2023-04-02T22:30:01.860Z,9.21
2023-04-02T22:45:01.521Z,9.04
2023-04-02T23:00:02.218Z,8.86
2023-04-02T23:15:01.933Z,8.69
2023-04-02T23:30:01.632Z,8.51
2023-04-02T23:45:02.309Z,8.38
